createdAt,value
2022-08-05T00:03:30.026Z,100668.56
2022-08-05T00:08:35.475Z,100651.47
2022-08-05T00:13:40.100Z,100650.38
2022-08-05T00:18:48.291Z,100641.28
2022-08-05T00:24:09.881Z,100641.53
2022-08-05T00:29:11.794Z,100633.00
2022-08-05T00:34:53.754Z,100633.00
2022-08-05T00:39:37.017Z,100624.16
2022-08-05T00:44:46.149Z,100618.28
2022-08-05T00:49:51.428Z,100619.63
2022-08-05T00:54:53.461Z,100619.34
2022-08-05T00:59:57.619Z,100629.53
2022-08-05T01:04:59.893Z,100630.59
2022-08-05T01:10:02.572Z,100627.09
2022-08-05T01:15:35.319Z,100638.34
2022-08-05T01:20:51.924Z,100657.03
2022-08-05T01:26:18.706Z,100642.88
2022-08-05T01:31:45.194Z,100634.84
2022-08-05T01:36:49.364Z,100638.63
2022-08-05T01:41:52.999Z,100632.72
2022-08-05T01:46:55.246Z,100632.44
2022-08-05T01:52:01.077Z,100640.47
2022-08-05T01:58:11.959Z,100639.66
2022-08-05T02:02:28.807Z,100641.81
2022-08-05T02:07:34.914Z,100658.56
2022-08-05T02:12:50.996Z,100671.31
2022-08-05T02:18:30.717Z,100691.31
2022-08-05T02:23:33.786Z,100749.19
2022-08-05T02:28:41.662Z,100775.75
2022-08-05T02:33:57.368Z,100811.97
2022-08-05T02:39:02.922Z,100803.06
2022-08-05T02:44:13.301Z,100787.66
2022-08-05T02:49:19.171Z,100809.06
2022-08-05T02:54:36.170Z,100770.09
2022-08-05T02:59:47.864Z,100753.72
2022-08-05T03:04:54.454Z,100788.34
2022-08-05T03:09:56.102Z,100780.44
2022-08-05T03:14:57.748Z,100789.78
2022-08-05T03:19:59.533Z,100815.22
2022-08-05T03:25:32.588Z,100812.06
2022-08-05T03:30:30.149Z,100822.94
2022-08-05T03:35:40.784Z,100832.16
2022-08-05T03:40:47.557Z,100819.81
2022-08-05T03:45:57.861Z,100804.97
2022-08-05T03:52:37.396Z,100813.94
2022-08-05T03:56:44.285Z,100792.19
2022-08-05T04:01:50.868Z,100792.75
2022-08-05T04:06:54.127Z,100783.41
2022-08-05T04:11:57.979Z,100760.25
2022-08-05T04:17:00.375Z,100745.66
2022-08-05T04:22:10.323Z,100732.50
2022-08-05T04:27:14.100Z,100689.50
2022-08-05T04:32:30.675Z,100632.78
2022-08-05T04:38:02.452Z,100631.25
2022-08-05T04:42:55.239Z,100671.19
2022-08-05T04:48:26.899Z,100670.66
2022-08-05T04:53:29.327Z,100717.69
2022-08-05T04:58:35.400Z,100733.03
2022-08-05T05:03:42.102Z,100743.84
2022-08-05T05:08:44.336Z,100762.22
2022-08-05T05:13:51.597Z,100776.00
2022-08-05T05:19:17.752Z,100783.63
2022-08-05T05:24:18.467Z,100762.03
2022-08-05T05:29:20.045Z,100759.91
2022-08-05T05:34:27.109Z,100747.84
2022-08-05T05:39:34.427Z,100759.34
2022-08-05T05:44:42.967Z,100776.84
2022-08-05T05:49:47.701Z,100776.91
2022-08-05T05:55:02.261Z,100767.69
2022-08-05T06:00:13.078Z,100791.38
2022-08-05T06:05:17.205Z,100784.59
2022-08-05T06:10:19.097Z,100792.34
2022-08-05T06:15:24.226Z,100785.06
2022-08-05T06:20:26.098Z,100785.84
2022-08-05T06:26:12.620Z,100801.69
2022-08-05T06:30:51.868Z,100807.91
2022-08-05T06:36:07.777Z,100821.25
2022-08-05T06:41:12.773Z,100815.78
2022-08-05T06:46:15.025Z,100810.47
2022-08-05T06:51:23.755Z,100810.53
2022-08-05T06:56:34.255Z,100823.88
2022-08-05T07:01:36.875Z,100833.94
2022-08-05T07:06:38.629Z,100847.28
2022-08-05T07:11:40.253Z,100849.72
2022-08-05T07:18:00.997Z,100856.63
2022-08-05T07:22:04.333Z,100867.03
2022-08-05T07:27:08.901Z,100871.59
2022-08-05T07:32:10.596Z,100878.38
2022-08-05T07:37:12.191Z,100875.97
2022-08-05T07:42:16.170Z,100883.06
2022-08-05T07:47:17.957Z,100881.44
2022-08-05T07:52:20.590Z,100895.50
2022-08-05T07:57:51.383Z,100902.63
2022-08-05T08:03:14.862Z,100907.50
2022-08-05T08:08:12.170Z,100922.78
2022-08-05T08:13:14.225Z,100932.03
2022-08-05T08:18:23.869Z,100936.91
2022-08-05T08:24:02.973Z,100939.94
2022-08-05T08:28:58.914Z,100957.53
2022-08-05T08:34:01.552Z,100963.41
2022-08-05T08:39:03.371Z,100967.53
2022-08-05T08:45:19.016Z,100976.50
2022-08-05T08:50:06.021Z,100979.78
2022-08-05T08:54:55.715Z,100993.88
2022-08-05T08:59:59.520Z,100996.75
2022-08-05T09:05:16.786Z,100995.59
2022-08-05T09:10:20.725Z,100994.81
2022-08-05T09:15:29.004Z,100997.06
2022-08-05T09:20:36.348Z,100984.31
2022-08-05T09:26:02.374Z,100987.31
2022-08-05T09:31:43.938Z,100987.06
2022-08-05T09:36:54.154Z,100996.22
2022-08-05T09:42:03.117Z,100989.06
2022-08-05T09:47:49.003Z,101000.03
2022-08-05T09:52:58.224Z,101015.75
2022-08-05T09:58:00.238Z,101022.09
2022-08-05T10:03:10.038Z,101025.19
2022-08-05T10:08:36.307Z,101040.41
2022-08-05T10:13:47.792Z,101040.97
2022-08-05T10:18:51.427Z,101059.75
2022-08-05T10:23:58.974Z,101071.56
2022-08-05T10:29:02.269Z,101081.16
2022-08-05T10:34:06.949Z,101090.25
2022-08-05T10:39:24.394Z,101102.28
2022-08-05T10:44:45.245Z,101108.47
2022-08-05T10:50:33.151Z,101120.47
2022-08-05T10:55:30.159Z,101129.53
2022-08-05T11:00:46.264Z,101136.00
2022-08-05T11:06:15.283Z,101145.06
2022-08-05T11:11:44.729Z,101151.28
2022-08-05T11:17:57.289Z,101174.31
2022-08-05T11:22:53.935Z,101184.91
2022-08-05T11:28:10.802Z,101190.22
2022-08-05T11:33:46.511Z,101189.44
2022-08-05T11:38:51.847Z,101208.75
2022-08-05T11:44:11.975Z,101202.91
2022-08-05T11:49:15.175Z,101207.94
2022-08-05T11:54:55.019Z,101208.47
2022-08-05T11:59:57.870Z,101216.00
2022-08-05T12:05:07.422Z,101226.75
2022-08-05T12:10:13.164Z,101229.09
2022-08-05T12:15:33.271Z,101221.19
2022-08-05T12:20:39.409Z,101221.38
2022-08-05T12:25:57.006Z,101228.34
2022-08-05T12:31:02.410Z,101220.88
2022-08-05T12:36:08.267Z,101216.81
2022-08-05T12:41:13.927Z,101220.13
2022-08-05T12:46:28.856Z,101241.63
2022-08-05T12:52:12.541Z,101238.78
2022-08-05T12:56:55.067Z,101249.94
2022-08-05T13:02:07.666Z,101252.94
2022-08-05T13:07:17.379Z,101248.06
2022-08-05T13:12:28.679Z,101259.25
2022-08-05T13:17:41.308Z,101252.50
2022-08-05T13:22:48.330Z,101261.03
2022-08-05T13:27:54.894Z,101261.53
2022-08-05T13:32:56.632Z,101271.22
2022-08-05T13:37:58.217Z,101280.66
2022-08-05T13:43:06.720Z,101285.16
2022-08-05T13:48:57.336Z,101274.81
2022-08-05T13:53:35.483Z,101268.59
2022-08-05T13:58:53.009Z,101270.34
2022-08-05T14:03:55.472Z,101272.06
2022-08-05T14:08:59.553Z,101269.09
2022-08-05T14:14:01.302Z,101262.50
2022-08-05T14:19:05.861Z,101252.22
2022-08-05T14:24:07.534Z,101271.88
2022-08-05T14:29:15.961Z,101275.22
2022-08-05T14:34:17.967Z,101275.19
2022-08-05T14:39:25.503Z,101273.78
2022-08-05T14:44:30.128Z,101276.94
2022-08-05T14:49:56.147Z,101277.41
2022-08-05T14:54:53.505Z,101283.66
2022-08-05T14:59:55.186Z,101280.69
2022-08-05T15:04:58.089Z,101287.94
2022-08-05T15:10:03.356Z,101293.22
2022-08-05T15:15:05.701Z,101292.47
2022-08-05T15:20:19.024Z,101301.81
2022-08-05T15:25:23.623Z,101295.69
2022-08-05T15:30:45.559Z,101303.72
2022-08-05T15:35:48.054Z,101302.59
2022-08-05T15:41:04.090Z,101303.72
2022-08-05T15:46:13.135Z,101308.72
2022-08-05T15:51:16.173Z,101308.56
2022-08-05T15:56:19.157Z,101307.00
2022-08-05T16:01:22.243Z,101308.66
2022-08-05T16:06:31.172Z,101317.47
2022-08-05T16:11:42.790Z,101314.25
2022-08-05T16:16:46.117Z,101313.47
2022-08-05T16:22:00.359Z,101316.53
2022-08-05T16:27:04.762Z,101325.81
2022-08-05T16:32:09.782Z,101332.78
2022-08-05T16:38:01.714Z,101334.31
2022-08-05T16:42:35.101Z,101346.53
2022-08-05T16:47:48.295Z,101354.19
2022-08-05T16:52:57.232Z,101354.00
2022-08-05T16:58:01.457Z,101354.19
2022-08-05T17:03:15.402Z,101356.38
2022-08-05T17:08:36.423Z,101362.63
2022-08-05T17:13:45.387Z,101369.41
2022-08-05T17:18:47.023Z,101370.34
2022-08-05T17:24:04.827Z,101378.50
2022-08-05T17:29:10.316Z,101383.28
2022-08-05T17:34:11.923Z,101390.78
2022-08-05T17:39:23.894Z,101389.31
2022-08-05T17:44:32.489Z,101394.94
2022-08-05T17:49:59.640Z,101398.88
2022-08-05T17:54:55.888Z,101394.16
2022-08-05T18:00:05.561Z,101419.59
2022-08-05T18:05:08.295Z,101424.16
2022-08-05T18:10:11.453Z,101433.06
2022-08-05T18:15:15.821Z,101434.72
2022-08-05T18:20:17.368Z,101438.75
2022-08-05T18:25:19.109Z,101448.75
2022-08-05T18:30:23.801Z,101458.09
2022-08-05T18:35:49.516Z,101471.78
2022-08-05T18:41:56.162Z,101470.97
2022-08-05T18:46:12.868Z,101472.63
2022-08-05T18:52:04.795Z,101472.09
2022-08-05T18:56:36.003Z,101475.84
2022-08-05T19:01:48.145Z,101476.47
2022-08-05T19:06:59.896Z,101481.00
2022-08-05T19:12:01.826Z,101486.88
2022-08-05T19:17:03.503Z,101496.03
2022-08-05T19:22:08.172Z,101513.91
2022-08-05T19:27:10.285Z,101513.28
2022-08-05T19:32:12.143Z,101524.31
2022-08-05T19:37:15.533Z,101541.84
2022-08-05T19:42:17.375Z,101552.38
2022-08-05T19:47:19.798Z,101562.56
2022-08-05T19:52:31.399Z,101579.25
2022-08-05T19:57:47.695Z,101583.75
2022-08-05T20:02:55.657Z,101593.38
2022-08-05T20:07:59.027Z,101591.81
2022-08-05T20:13:00.933Z,101603.09
2022-08-05T20:18:02.951Z,101606.19
2022-08-05T20:23:04.921Z,101617.97
2022-08-05T20:28:07.807Z,101629.31
2022-08-05T20:33:15.549Z,101641.44
2022-08-05T20:38:22.661Z,101642.63
2022-08-05T20:43:58.306Z,101650.19
2022-08-05T20:48:51.077Z,101655.03
2022-08-05T20:53:56.176Z,101662.56
2022-08-05T20:59:00.095Z,101654.09
2022-08-05T21:04:12.943Z,101664.41
2022-08-05T21:09:15.096Z,101671.22
2022-08-05T21:14:16.893Z,101672.47
2022-08-05T21:19:20.500Z,101679.13
2022-08-05T21:24:25.188Z,101678.31
2022-08-05T21:29:32.187Z,101686.84
2022-08-05T21:34:35.595Z,101690.56
2022-08-05T21:39:40.409Z,101692.06
2022-08-05T21:44:42.524Z,101705.41
2022-08-05T21:50:00.091Z,101713.03
2022-08-05T21:55:06.418Z,101716.34
2022-08-05T22:00:11.260Z,101720.09
2022-08-05T22:05:16.204Z,101722.84
2022-08-05T22:10:27.065Z,101723.56
2022-08-05T22:15:56.438Z,101726.66
2022-08-05T22:20:51.725Z,101726.66
2022-08-05T22:26:10.682Z,101733.25
2022-08-05T22:31:13.081Z,101733.91
2022-08-05T22:36:17.115Z,101740.06
2022-08-05T22:42:05.481Z,101743.56
2022-08-05T22:46:41.611Z,101755.88
2022-08-05T22:52:05.559Z,101755.66
2022-08-05T22:57:06.050Z,101771.78
2022-08-05T23:02:08.106Z,101775.84
2022-08-05T23:07:09.746Z,101774.44
2022-08-05T23:12:14.658Z,101785.69
2022-08-05T23:17:16.451Z,101792.00
2022-08-05T23:22:27.828Z,101805.28
2022-08-05T23:27:42.250Z,101810.41
2022-08-05T23:32:45.328Z,101810.78
2022-08-05T23:37:47.023Z,101823.44
2022-08-05T23:42:53.548Z,101823.84
2022-08-05T23:47:59.399Z,101835.50
2022-08-05T23:53:03.231Z,101840.16
2022-08-05T23:58:04.986Z,101835.81
